sensor_id;sensor_type;location;lat;lon;timestamp;pressure;altitude;pressure_sealevel;temperature;humidity
25855;BME280;13680;49.936;11.344;2022-08-16T00:01:44;96091.84;;;20.47;58.69
25855;BME280;13680;49.936;11.344;2022-08-16T00:04:11;96091.50;;;20.52;58.65
25855;BME280;13680;49.936;11.344;2022-08-16T00:06:37;96099.31;;;20.50;58.98
25855;BME280;13680;49.936;11.344;2022-08-16T00:09:03;96091.53;;;20.56;58.83
25855;BME280;13680;49.936;11.344;2022-08-16T00:11:29;96094.25;;;20.56;58.86
25855;BME280;13680;49.936;11.344;2022-08-16T00:13:55;96100.47;;;20.49;59.12
25855;BME280;13680;49.936;11.344;2022-08-16T00:16:26;96106.72;;;20.53;59.04
25855;BME280;13680;49.936;11.344;2022-08-16T00:18:52;96098.88;;;20.48;59.41
25855;BME280;13680;49.936;11.344;2022-08-16T00:21:17;96095.75;;;20.42;59.38
25855;BME280;13680;49.936;11.344;2022-08-16T00:23:42;96098.84;;;20.44;59.39
25855;BME280;13680;49.936;11.344;2022-08-16T00:26:08;96100.78;;;20.40;59.48
25855;BME280;13680;49.936;11.344;2022-08-16T00:28:33;96093.34;;;20.34;59.76
25855;BME280;13680;49.936;11.344;2022-08-16T00:30:59;96089.41;;;20.31;59.54
25855;BME280;13680;49.936;11.344;2022-08-16T00:33:24;96090.16;;;20.28;59.79
25855;BME280;13680;49.936;11.344;2022-08-16T00:35:49;96093.31;;;20.30;59.56
25855;BME280;13680;49.936;11.344;2022-08-16T00:38:15;96091.31;;;20.23;59.90
25855;BME280;13680;49.936;11.344;2022-08-16T00:40:46;96084.66;;;20.17;60.05
25855;BME280;13680;49.936;11.344;2022-08-16T00:43:17;96088.47;;;20.09;60.51
25855;BME280;13680;49.936;11.344;2022-08-16T00:48:17;96093.16;;;20.08;60.37
25855;BME280;13680;49.936;11.344;2022-08-16T00:50:43;96091.56;;;20.07;60.36
25855;BME280;13680;49.936;11.344;2022-08-16T00:53:11;96089.66;;;20.11;60.24
25855;BME280;13680;49.936;11.344;2022-08-16T00:55:41;96089.97;;;19.99;60.73
25855;BME280;13680;49.936;11.344;2022-08-16T00:58:08;96087.59;;;19.98;60.95
25855;BME280;13680;49.936;11.344;2022-08-16T01:00:35;96088.78;;;19.97;61.04
25855;BME280;13680;49.936;11.344;2022-08-16T01:03:06;96085.19;;;19.89;61.03
25855;BME280;13680;49.936;11.344;2022-08-16T01:05:33;96098.81;;;19.89;60.78
25855;BME280;13680;49.936;11.344;2022-08-16T01:07:59;96098.72;;;19.78;61.28
25855;BME280;13680;49.936;11.344;2022-08-16T01:10:27;96099.06;;;19.73;61.34
25855;BME280;13680;49.936;11.344;2022-08-16T01:12:53;96097.44;;;19.68;61.55
25855;BME280;13680;49.936;11.344;2022-08-16T01:15:19;96105.91;;;19.56;62.17
25855;BME280;13680;49.936;11.344;2022-08-16T01:17:45;96098.88;;;19.55;61.91
25855;BME280;13680;49.936;11.344;2022-08-16T01:20:12;96103.53;;;19.51;62.23
25855;BME280;13680;49.936;11.344;2022-08-16T01:25:18;96107.50;;;19.23;62.96
25855;BME280;13680;49.936;11.344;2022-08-16T01:27:50;96108.22;;;19.20;63.03
25855;BME280;13680;49.936;11.344;2022-08-16T01:30:21;96110.97;;;19.20;63.31
25855;BME280;13680;49.936;11.344;2022-08-16T01:32:49;96111.34;;;19.18;63.31
25855;BME280;13680;49.936;11.344;2022-08-16T01:35:23;96115.63;;;19.19;62.76
25855;BME280;13680;49.936;11.344;2022-08-16T01:37:53;96103.88;;;19.11;62.94
25855;BME280;13680;49.936;11.344;2022-08-16T01:40:23;96103.06;;;19.11;63.02
25855;BME280;13680;49.936;11.344;2022-08-16T01:42:49;96108.88;;;19.09;62.71
25855;BME280;13680;49.936;11.344;2022-08-16T01:45:17;96099.13;;;19.05;62.99
25855;BME280;13680;49.936;11.344;2022-08-16T01:47:43;96113.03;;;18.96;63.81
25855;BME280;13680;49.936;11.344;2022-08-16T01:50:10;96109.09;;;18.93;64.08
25855;BME280;13680;49.936;11.344;2022-08-16T01:52:36;96111.41;;;18.91;64.36
25855;BME280;13680;49.936;11.344;2022-08-16T01:55:03;96108.28;;;18.93;64.23
25855;BME280;13680;49.936;11.344;2022-08-16T01:57:28;96108.72;;;18.95;63.87
25855;BME280;13680;49.936;11.344;2022-08-16T01:59:54;96106.00;;;18.95;63.74
25855;BME280;13680;49.936;11.344;2022-08-16T02:02:20;96103.66;;;18.93;63.49
25855;BME280;13680;49.936;11.344;2022-08-16T02:04:47;96105.94;;;18.91;63.81
25855;BME280;13680;49.936;11.344;2022-08-16T02:07:12;96102.06;;;18.92;63.90
25855;BME280;13680;49.936;11.344;2022-08-16T02:09:40;96100.13;;;18.93;63.77
25855;BME280;13680;49.936;11.344;2022-08-16T02:12:07;96103.59;;;18.90;64.17
25855;BME280;13680;49.936;11.344;2022-08-16T02:14:34;96100.81;;;18.86;64.16
25855;BME280;13680;49.936;11.344;2022-08-16T02:17:02;96103.41;;;18.79;63.94
25855;BME280;13680;49.936;11.344;2022-08-16T02:19:31;96104.13;;;18.72;64.33
25855;BME280;13680;49.936;11.344;2022-08-16T02:21:57;96104.81;;;18.65;64.77
25855;BME280;13680;49.936;11.344;2022-08-16T02:24:24;96105.19;;;18.64;64.31
25855;BME280;13680;49.936;11.344;2022-08-16T02:26:50;96097.75;;;18.61;64.81
25855;BME280;13680;49.936;11.344;2022-08-16T02:29:17;96100.06;;;18.59;64.62
25855;BME280;13680;49.936;11.344;2022-08-16T02:31:45;96101.94;;;18.55;64.64
25855;BME280;13680;49.936;11.344;2022-08-16T02:34:11;96105.41;;;18.52;64.69
25855;BME280;13680;49.936;11.344;2022-08-16T02:36:36;96111.16;;;18.46;65.15
25855;BME280;13680;49.936;11.344;2022-08-16T02:39:03;96107.50;;;18.35;65.35
25855;BME280;13680;49.936;11.344;2022-08-16T02:41:29;96116.41;;;18.32;65.05
25855;BME280;13680;49.936;11.344;2022-08-16T02:43:55;96112.81;;;18.28;65.30
25855;BME280;13680;49.936;11.344;2022-08-16T02:46:20;96113.03;;;18.15;66.27
25855;BME280;13680;49.936;11.344;2022-08-16T02:48:45;96115.38;;;18.17;66.88
25855;BME280;13680;49.936;11.344;2022-08-16T02:51:11;96113.38;;;18.14;67.30
25855;BME280;13680;49.936;11.344;2022-08-16T02:53:39;96115.75;;;18.15;66.84
25855;BME280;13680;49.936;11.344;2022-08-16T02:56:05;96109.56;;;18.19;67.04
25855;BME280;13680;49.936;11.344;2022-08-16T02:58:31;96110.03;;;18.24;66.93
25855;BME280;13680;49.936;11.344;2022-08-16T03:00:58;96115.78;;;18.19;67.14
25855;BME280;13680;49.936;11.344;2022-08-16T03:03:25;96118.16;;;18.21;67.09
25855;BME280;13680;49.936;11.344;2022-08-16T03:05:51;96108.13;;;18.25;67.54
25855;BME280;13680;49.936;11.344;2022-08-16T03:08:18;96114.75;;;18.27;68.46
25855;BME280;13680;49.936;11.344;2022-08-16T03:10:44;96117.59;;;18.35;68.72
25855;BME280;13680;49.936;11.344;2022-08-16T03:13:09;96116.16;;;18.44;67.77
25855;BME280;13680;49.936;11.344;2022-08-16T03:15:35;96119.75;;;18.48;68.40
25855;BME280;13680;49.936;11.344;2022-08-16T03:18:00;96123.69;;;18.51;68.35
25855;BME280;13680;49.936;11.344;2022-08-16T03:20:26;96125.28;;;18.56;67.73
25855;BME280;13680;49.936;11.344;2022-08-16T03:22:52;96132.69;;;18.55;67.78
25855;BME280;13680;49.936;11.344;2022-08-16T03:25:18;96124.56;;;18.59;67.53
25855;BME280;13680;49.936;11.344;2022-08-16T03:27:43;96126.03;;;18.53;67.73
25855;BME280;13680;49.936;11.344;2022-08-16T03:30:12;96130.66;;;18.48;67.78
25855;BME280;13680;49.936;11.344;2022-08-16T03:32:38;96131.41;;;18.49;67.78
25855;BME280;13680;49.936;11.344;2022-08-16T03:35:05;96136.38;;;18.43;67.67
25855;BME280;13680;49.936;11.344;2022-08-16T03:37:32;96131.38;;;18.45;67.06
25855;BME280;13680;49.936;11.344;2022-08-16T03:39:57;96135.53;;;18.39;67.55
25855;BME280;13680;49.936;11.344;2022-08-16T03:42:23;96130.00;;;18.32;67.98
25855;BME280;13680;49.936;11.344;2022-08-16T03:44:48;96140.84;;;18.28;67.90
25855;BME280;13680;49.936;11.344;2022-08-16T03:47:14;96139.19;;;18.24;67.78
25855;BME280;13680;49.936;11.344;2022-08-16T03:49:39;96140.66;;;18.18;67.63
25855;BME280;13680;49.936;11.344;2022-08-16T03:52:06;96136.66;;;18.11;67.90
25855;BME280;13680;49.936;11.344;2022-08-16T03:54:32;96140.84;;;18.05;68.34
25855;BME280;13680;49.936;11.344;2022-08-16T03:56:57;96139.28;;;18.04;67.89
25855;BME280;13680;49.936;11.344;2022-08-16T03:59:23;96138.41;;;18.00;68.25
25855;BME280;13680;49.936;11.344;2022-08-16T04:01:48;96143.28;;;17.91;68.35
25855;BME280;13680;49.936;11.344;2022-08-16T04:04:13;96137.78;;;17.87;68.25
25855;BME280;13680;49.936;11.344;2022-08-16T04:06:39;96140.88;;;17.86;68.14
25855;BME280;13680;49.936;11.344;2022-08-16T04:09:04;96139.28;;;17.84;68.02
25855;BME280;13680;49.936;11.344;2022-08-16T04:11:30;96140.03;;;17.81;68.26
25855;BME280;13680;49.936;11.344;2022-08-16T04:13:55;96139.88;;;17.74;67.96
25855;BME280;13680;49.936;11.344;2022-08-16T04:16:20;96140.75;;;17.78;68.42
25855;BME280;13680;49.936;11.344;2022-08-16T04:18:46;96147.66;;;17.72;68.55
25855;BME280;13680;49.936;11.344;2022-08-16T04:21:13;96146.28;;;17.62;69.29
25855;BME280;13680;49.936;11.344;2022-08-16T04:23:38;96146.59;;;17.57;68.98
25855;BME280;13680;49.936;11.344;2022-08-16T04:26:05;96151.94;;;17.54;69.09
25855;BME280;13680;49.936;11.344;2022-08-16T04:28:31;96157.81;;;17.56;69.11
25855;BME280;13680;49.936;11.344;2022-08-16T04:30:57;96148.88;;;17.55;69.39
25855;BME280;13680;49.936;11.344;2022-08-16T04:33:22;96157.47;;;17.57;69.42
25855;BME280;13680;49.936;11.344;2022-08-16T04:35:50;96160.03;;;17.50;69.38
25855;BME280;13680;49.936;11.344;2022-08-16T04:38:15;96168.84;;;17.43;69.33
25855;BME280;13680;49.936;11.344;2022-08-16T04:40:40;96166.13;;;17.43;69.97
25855;BME280;13680;49.936;11.344;2022-08-16T04:43:06;96162.69;;;17.46;69.39
25855;BME280;13680;49.936;11.344;2022-08-16T04:45:31;96175.94;;;17.48;69.43
25855;BME280;13680;49.936;11.344;2022-08-16T04:47:57;96179.41;;;17.48;69.54
25855;BME280;13680;49.936;11.344;2022-08-16T04:50:25;96185.84;;;17.60;68.94
25855;BME280;13680;49.936;11.344;2022-08-16T04:52:52;96184.84;;;17.68;69.21
25855;BME280;13680;49.936;11.344;2022-08-16T04:55:23;96182.69;;;17.77;68.85
25855;BME280;13680;49.936;11.344;2022-08-16T04:57:52;96176.03;;;17.94;68.26
25855;BME280;13680;49.936;11.344;2022-08-16T05:00:25;96174.28;;;18.06;67.68
25855;BME280;13680;49.936;11.344;2022-08-16T05:02:53;96176.47;;;18.20;67.77
25855;BME280;13680;49.936;11.344;2022-08-16T05:05:19;96172.34;;;18.29;67.43
25855;BME280;13680;49.936;11.344;2022-08-16T05:07:46;96171.31;;;18.38;67.52
25855;BME280;13680;49.936;11.344;2022-08-16T05:10:11;96175.03;;;18.53;66.90
25855;BME280;13680;49.936;11.344;2022-08-16T05:12:38;96184.78;;;18.54;66.76
25855;BME280;13680;49.936;11.344;2022-08-16T05:15:04;96180.56;;;18.60;66.81
25855;BME280;13680;49.936;11.344;2022-08-16T05:17:30;96181.94;;;18.73;66.37
25855;BME280;13680;49.936;11.344;2022-08-16T05:19:56;96175.13;;;18.87;65.99
25855;BME280;13680;49.936;11.344;2022-08-16T05:22:22;96183.81;;;18.92;65.37
25855;BME280;13680;49.936;11.344;2022-08-16T05:24:47;96190.13;;;19.00;65.44
25855;BME280;13680;49.936;11.344;2022-08-16T05:27:14;96186.03;;;19.13;65.11
25855;BME280;13680;49.936;11.344;2022-08-16T05:29:39;96183.81;;;19.23;64.76
25855;BME280;13680;49.936;11.344;2022-08-16T05:32:04;96182.91;;;19.11;65.42
25855;BME280;13680;49.936;11.344;2022-08-16T05:34:30;96186.72;;;19.37;64.58
25855;BME280;13680;49.936;11.344;2022-08-16T05:36:56;96180.59;;;19.48;64.67
25855;BME280;13680;49.936;11.344;2022-08-16T05:39:25;96183.81;;;19.57;64.47
25855;BME280;13680;49.936;11.344;2022-08-16T05:41:51;96189.81;;;19.70;64.50
25855;BME280;13680;49.936;11.344;2022-08-16T05:44:18;96187.31;;;19.91;63.86
25855;BME280;13680;49.936;11.344;2022-08-16T05:46:44;96185.75;;;19.87;64.29
25855;BME280;13680;49.936;11.344;2022-08-16T05:49:10;96197.50;;;19.94;64.35
25855;BME280;13680;49.936;11.344;2022-08-16T05:51:39;96203.88;;;20.06;64.11
25855;BME280;13680;49.936;11.344;2022-08-16T05:54:05;96194.19;;;20.16;63.96
25855;BME280;13680;49.936;11.344;2022-08-16T05:56:30;96197.84;;;20.31;63.33
25855;BME280;13680;49.936;11.344;2022-08-16T05:58:56;96193.63;;;20.40;63.40
25855;BME280;13680;49.936;11.344;2022-08-16T06:01:21;96187.22;;;20.67;62.85
25855;BME280;13680;49.936;11.344;2022-08-16T06:03:46;96196.16;;;20.64;62.91
25855;BME280;13680;49.936;11.344;2022-08-16T06:06:12;96199.03;;;20.82;62.37
25855;BME280;13680;49.936;11.344;2022-08-16T06:08:37;96199.13;;;21.00;61.58
25855;BME280;13680;49.936;11.344;2022-08-16T06:11:02;96201.16;;;21.06;61.52
25855;BME280;13680;49.936;11.344;2022-08-16T06:13:28;96199.28;;;21.25;60.53
25855;BME280;13680;49.936;11.344;2022-08-16T06:15:53;96208.63;;;21.24;60.72
25855;BME280;13680;49.936;11.344;2022-08-16T06:18:18;96201.66;;;21.30;60.30
25855;BME280;13680;49.936;11.344;2022-08-16T06:20:44;96206.88;;;21.57;59.95
25855;BME280;13680;49.936;11.344;2022-08-16T06:23:10;96217.44;;;21.62;58.92
25855;BME280;13680;49.936;11.344;2022-08-16T06:25:35;96216.31;;;21.78;59.07
25855;BME280;13680;49.936;11.344;2022-08-16T06:28:03;96215.19;;;21.97;58.30
25855;BME280;13680;49.936;11.344;2022-08-16T06:30:28;96218.69;;;21.86;57.78
25855;BME280;13680;49.936;11.344;2022-08-16T06:32:56;96218.34;;;22.02;57.89
25855;BME280;13680;49.936;11.344;2022-08-16T06:35:21;96222.25;;;22.01;57.76
25855;BME280;13680;49.936;11.344;2022-08-16T06:37:48;96217.59;;;22.23;57.54
25855;BME280;13680;49.936;11.344;2022-08-16T06:40:13;96221.13;;;22.20;57.27
25855;BME280;13680;49.936;11.344;2022-08-16T06:42:39;96214.50;;;22.54;56.22
25855;BME280;13680;49.936;11.344;2022-08-16T06:45:05;96209.81;;;22.62;56.27
25855;BME280;13680;49.936;11.344;2022-08-16T06:47:30;96209.78;;;22.87;55.30
25855;BME280;13680;49.936;11.344;2022-08-16T06:49:56;96216.44;;;22.86;55.43
25855;BME280;13680;49.936;11.344;2022-08-16T06:52:21;96211.31;;;23.24;54.34
25855;BME280;13680;49.936;11.344;2022-08-16T06:54:46;96205.81;;;23.24;54.28
25855;BME280;13680;49.936;11.344;2022-08-16T06:57:13;96210.81;;;23.51;53.15
25855;BME280;13680;49.936;11.344;2022-08-16T06:59:38;96208.91;;;23.41;53.51
25855;BME280;13680;49.936;11.344;2022-08-16T07:02:04;96206.78;;;23.77;52.57
25855;BME280;13680;49.936;11.344;2022-08-16T07:04:29;96202.81;;;23.89;53.19
25855;BME280;13680;49.936;11.344;2022-08-16T07:06:55;96197.63;;;24.09;51.59
25855;BME280;13680;49.936;11.344;2022-08-16T07:09:20;96195.66;;;24.10;51.73
25855;BME280;13680;49.936;11.344;2022-08-16T07:11:46;96194.13;;;24.05;52.69
25855;BME280;13680;49.936;11.344;2022-08-16T07:14:11;96198.97;;;24.39;51.68
25855;BME280;13680;49.936;11.344;2022-08-16T07:16:37;96201.59;;;24.57;51.56
25855;BME280;13680;49.936;11.344;2022-08-16T07:19:09;96201.00;;;24.84;50.12
25855;BME280;13680;49.936;11.344;2022-08-16T07:21:34;96204.91;;;24.87;50.53
25855;BME280;13680;49.936;11.344;2022-08-16T07:24:02;96211.31;;;24.73;50.77
25855;BME280;13680;49.936;11.344;2022-08-16T07:26:29;96206.34;;;24.98;50.35
25855;BME280;13680;49.936;11.344;2022-08-16T07:28:55;96207.53;;;24.97;50.11
25855;BME280;13680;49.936;11.344;2022-08-16T07:31:20;96206.19;;;25.13;50.00
25855;BME280;13680;49.936;11.344;2022-08-16T07:33:46;96202.94;;;25.25;48.62
25855;BME280;13680;49.936;11.344;2022-08-16T07:36:13;96202.69;;;25.12;49.60
25855;BME280;13680;49.936;11.344;2022-08-16T07:38:39;96199.22;;;25.43;48.87
25855;BME280;13680;49.936;11.344;2022-08-16T07:41:05;96197.63;;;25.76;48.17
25855;BME280;13680;49.936;11.344;2022-08-16T07:43:31;96196.41;;;25.81;47.86
25855;BME280;13680;49.936;11.344;2022-08-16T07:45:56;96207.16;;;25.99;47.67
25855;BME280;13680;49.936;11.344;2022-08-16T07:48:23;96198.94;;;25.95;46.67
25855;BME280;13680;49.936;11.344;2022-08-16T07:50:48;96193.91;;;26.45;45.98
25855;BME280;13680;49.936;11.344;2022-08-16T07:53:14;96202.72;;;26.60;46.03
25855;BME280;13680;49.936;11.344;2022-08-16T07:55:41;96204.34;;;26.57;45.99
25855;BME280;13680;49.936;11.344;2022-08-16T07:58:06;96202.81;;;26.56;46.01
25855;BME280;13680;49.936;11.344;2022-08-16T08:00:35;96197.41;;;26.97;44.76
25855;BME280;13680;49.936;11.344;2022-08-16T08:03:00;96207.63;;;26.76;45.09
25855;BME280;13680;49.936;11.344;2022-08-16T08:05:26;96208.00;;;26.78;45.40
25855;BME280;13680;49.936;11.344;2022-08-16T08:07:53;96208.75;;;26.27;44.06
25855;BME280;13680;49.936;11.344;2022-08-16T08:10:20;96214.69;;;26.50;44.30
25855;BME280;13680;49.936;11.344;2022-08-16T08:12:47;96216.13;;;26.34;44.52
25855;BME280;13680;49.936;11.344;2022-08-16T08:15:13;96214.44;;;26.91;44.20
25855;BME280;13680;49.936;11.344;2022-08-16T08:17:38;96216.13;;;26.85;44.60
25855;BME280;13680;49.936;11.344;2022-08-16T08:20:07;96208.91;;;27.35;43.90
25855;BME280;13680;49.936;11.344;2022-08-16T08:22:33;96213.22;;;27.16;44.54
25855;BME280;13680;49.936;11.344;2022-08-16T08:24:59;96209.94;;;27.45;43.35
25855;BME280;13680;49.936;11.344;2022-08-16T08:27:25;96214.00;;;27.37;43.46
25855;BME280;13680;49.936;11.344;2022-08-16T08:29:51;96212.56;;;27.52;42.60
25855;BME280;13680;49.936;11.344;2022-08-16T08:32:16;96214.63;;;27.85;42.12
25855;BME280;13680;49.936;11.344;2022-08-16T08:34:43;96214.75;;;28.18;41.17
25855;BME280;13680;49.936;11.344;2022-08-16T08:37:09;96221.22;;;28.11;41.59
25855;BME280;13680;49.936;11.344;2022-08-16T08:39:34;96217.44;;;28.38;41.36
25855;BME280;13680;49.936;11.344;2022-08-16T08:42:02;96212.25;;;28.23;42.81
25855;BME280;13680;49.936;11.344;2022-08-16T08:44:29;96214.72;;;28.71;39.43
25855;BME280;13680;49.936;11.344;2022-08-16T08:46:57;96215.13;;;28.53;39.78
25855;BME280;13680;49.936;11.344;2022-08-16T08:49:23;96206.53;;;28.31;40.80
25855;BME280;13680;49.936;11.344;2022-08-16T08:51:48;96211.22;;;28.34;40.09
25855;BME280;13680;49.936;11.344;2022-08-16T08:54:13;96214.16;;;28.43;40.37
25855;BME280;13680;49.936;11.344;2022-08-16T08:56:40;96214.19;;;28.76;40.82
25855;BME280;13680;49.936;11.344;2022-08-16T08:59:06;96202.00;;;28.90;39.82
25855;BME280;13680;49.936;11.344;2022-08-16T09:01:33;96215.75;;;29.39;37.87
25855;BME280;13680;49.936;11.344;2022-08-16T09:03:59;96210.72;;;29.64;37.95
25855;BME280;13680;49.936;11.344;2022-08-16T09:06:27;96217.47;;;28.87;38.53
25855;BME280;13680;49.936;11.344;2022-08-16T09:08:53;96215.28;;;29.41;38.29
25855;BME280;13680;49.936;11.344;2022-08-16T09:11:18;96221.25;;;28.61;38.56
25855;BME280;13680;49.936;11.344;2022-08-16T09:13:43;96226.13;;;28.73;38.70
25855;BME280;13680;49.936;11.344;2022-08-16T09:16:09;96221.94;;;28.65;38.11
25855;BME280;13680;49.936;11.344;2022-08-16T09:18:34;96232.34;;;28.07;39.73
25855;BME280;13680;49.936;11.344;2022-08-16T09:21:00;96217.78;;;28.23;39.53
25855;BME280;13680;49.936;11.344;2022-08-16T09:23:27;96221.59;;;28.63;39.38
25855;BME280;13680;49.936;11.344;2022-08-16T09:25:53;96216.88;;;29.26;37.68
25855;BME280;13680;49.936;11.344;2022-08-16T09:28:19;96213.97;;;29.00;37.29
25855;BME280;13680;49.936;11.344;2022-08-16T09:30:44;96208.44;;;29.00;38.12
25855;BME280;13680;49.936;11.344;2022-08-16T09:33:11;96211.44;;;29.51;36.65
25855;BME280;13680;49.936;11.344;2022-08-16T09:35:37;96214.16;;;29.81;36.34
25855;BME280;13680;49.936;11.344;2022-08-16T09:38:03;96210.97;;;29.40;35.91
25855;BME280;13680;49.936;11.344;2022-08-16T09:40:29;96206.91;;;30.26;36.03
25855;BME280;13680;49.936;11.344;2022-08-16T09:42:55;96202.22;;;29.97;36.17
25855;BME280;13680;49.936;11.344;2022-08-16T09:45:22;96203.97;;;29.78;35.91
25855;BME280;13680;49.936;11.344;2022-08-16T09:47:50;96214.19;;;29.38;35.91
25855;BME280;13680;49.936;11.344;2022-08-16T09:50:19;96217.44;;;29.50;35.53
25855;BME280;13680;49.936;11.344;2022-08-16T09:52:45;96221.44;;;29.62;36.91
25855;BME280;13680;49.936;11.344;2022-08-16T09:55:12;96204.56;;;30.63;34.99
25855;BME280;13680;49.936;11.344;2022-08-16T09:57:38;96192.28;;;30.86;34.29
25855;BME280;13680;49.936;11.344;2022-08-16T10:00:11;96195.34;;;30.79;34.57
25855;BME280;13680;49.936;11.344;2022-08-16T10:02:37;96193.97;;;30.83;34.12
25855;BME280;13680;49.936;11.344;2022-08-16T10:05:04;96202.63;;;30.85;33.31
25855;BME280;13680;49.936;11.344;2022-08-16T10:07:30;96199.56;;;30.71;33.84
25855;BME280;13680;49.936;11.344;2022-08-16T10:09:56;96194.31;;;30.85;33.76
25855;BME280;13680;49.936;11.344;2022-08-16T10:12:26;96201.81;;;30.37;33.72
25855;BME280;13680;49.936;11.344;2022-08-16T10:15:13;96202.00;;;30.43;34.02
25855;BME280;13680;49.936;11.344;2022-08-16T10:17:39;96190.09;;;30.81;34.19
25855;BME280;13680;49.936;11.344;2022-08-16T10:20:08;96197.28;;;31.48;34.58
25855;BME280;13680;49.936;11.344;2022-08-16T10:22:36;96204.13;;;32.01;32.01
25855;BME280;13680;49.936;11.344;2022-08-16T10:25:02;96199.00;;;32.22;31.67
25855;BME280;13680;49.936;11.344;2022-08-16T10:27:27;96196.84;;;32.35;30.05
25855;BME280;13680;49.936;11.344;2022-08-16T10:29:53;96198.69;;;31.09;32.80
25855;BME280;13680;49.936;11.344;2022-08-16T10:32:18;96198.47;;;31.38;32.09
25855;BME280;13680;49.936;11.344;2022-08-16T10:34:45;96198.00;;;31.62;31.54
25855;BME280;13680;49.936;11.344;2022-08-16T10:37:10;96187.44;;;31.47;32.18
25855;BME280;13680;49.936;11.344;2022-08-16T10:39:37;96203.69;;;31.58;31.16
25855;BME280;13680;49.936;11.344;2022-08-16T10:42:04;96198.63;;;30.87;32.63
25855;BME280;13680;49.936;11.344;2022-08-16T10:44:30;96207.19;;;30.79;31.98
25855;BME280;13680;49.936;11.344;2022-08-16T10:46:55;96192.16;;;30.55;32.96
25855;BME280;13680;49.936;11.344;2022-08-16T10:49:21;96206.03;;;30.55;33.60
25855;BME280;13680;49.936;11.344;2022-08-16T10:51:46;96206.25;;;30.47;34.14
25855;BME280;13680;49.936;11.344;2022-08-16T10:54:11;96201.59;;;30.44;34.26
25855;BME280;13680;49.936;11.344;2022-08-16T10:56:37;96206.09;;;30.77;33.13
25855;BME280;13680;49.936;11.344;2022-08-16T10:59:02;96197.88;;;30.73;33.59
25855;BME280;13680;49.936;11.344;2022-08-16T11:01:28;96193.59;;;31.07;32.97
25855;BME280;13680;49.936;11.344;2022-08-16T11:03:54;96211.25;;;29.59;34.58
25855;BME280;13680;49.936;11.344;2022-08-16T11:06:20;96194.59;;;30.27;33.21
25855;BME280;13680;49.936;11.344;2022-08-16T11:08:45;96202.25;;;30.96;32.72
25855;BME280;13680;49.936;11.344;2022-08-16T11:11:12;96201.44;;;31.22;33.54
25855;BME280;13680;49.936;11.344;2022-08-16T11:13:40;96194.47;;;31.04;33.96
25855;BME280;13680;49.936;11.344;2022-08-16T11:16:07;96197.88;;;31.21;32.55
25855;BME280;13680;49.936;11.344;2022-08-16T11:18:33;96195.69;;;31.16;31.38
25855;BME280;13680;49.936;11.344;2022-08-16T11:20:58;96181.66;;;31.86;31.80
25855;BME280;13680;49.936;11.344;2022-08-16T11:23:25;96187.94;;;32.50;30.13
25855;BME280;13680;49.936;11.344;2022-08-16T11:25:52;96186.63;;;32.91;29.47
25855;BME280;13680;49.936;11.344;2022-08-16T11:28:18;96186.75;;;32.60;29.46
25855;BME280;13680;49.936;11.344;2022-08-16T11:30:44;96196.53;;;31.92;29.70
25855;BME280;13680;49.936;11.344;2022-08-16T11:33:10;96191.31;;;32.04;30.31
25855;BME280;13680;49.936;11.344;2022-08-16T11:35:36;96188.97;;;33.02;29.70
25855;BME280;13680;49.936;11.344;2022-08-16T11:38:22;96187.88;;;33.18;28.60
25855;BME280;13680;49.936;11.344;2022-08-16T11:40:53;96188.34;;;32.89;29.18
25855;BME280;13680;49.936;11.344;2022-08-16T11:43:26;96192.53;;;32.34;29.08
25855;BME280;13680;49.936;11.344;2022-08-16T11:45:53;96192.72;;;32.49;28.80
25855;BME280;13680;49.936;11.344;2022-08-16T11:48:22;96200.00;;;32.15;29.35
25855;BME280;13680;49.936;11.344;2022-08-16T11:50:48;96196.97;;;32.22;29.27
25855;BME280;13680;49.936;11.344;2022-08-16T11:53:14;96203.13;;;32.67;29.63
25855;BME280;13680;49.936;11.344;2022-08-16T11:55:42;96206.31;;;33.43;28.35
25855;BME280;13680;49.936;11.344;2022-08-16T11:58:08;96198.59;;;32.42;29.84
25855;BME280;13680;49.936;11.344;2022-08-16T12:00:35;96195.84;;;31.88;30.35
25855;BME280;13680;49.936;11.344;2022-08-16T12:03:02;96199.00;;;30.76;31.68
25855;BME280;13680;49.936;11.344;2022-08-16T12:05:27;96191.91;;;30.75;32.06
25855;BME280;13680;49.936;11.344;2022-08-16T12:07:54;96195.78;;;31.47;31.15
25855;BME280;13680;49.936;11.344;2022-08-16T12:10:19;96197.84;;;30.99;31.89
25855;BME280;13680;49.936;11.344;2022-08-16T12:12:45;96195.63;;;31.29;31.06
25855;BME280;13680;49.936;11.344;2022-08-16T12:15:12;96191.47;;;31.78;30.48
25855;BME280;13680;49.936;11.344;2022-08-16T12:17:39;96196.94;;;31.91;31.46
25855;BME280;13680;49.936;11.344;2022-08-16T12:20:25;96196.28;;;32.09;30.37
25855;BME280;13680;49.936;11.344;2022-08-16T12:22:54;96201.78;;;31.68;30.85
25855;BME280;13680;49.936;11.344;2022-08-16T12:25:27;96191.09;;;31.44;31.04
25855;BME280;13680;49.936;11.344;2022-08-16T12:27:53;96200.88;;;31.49;30.79
25855;BME280;13680;49.936;11.344;2022-08-16T12:30:22;96197.63;;;31.50;31.04
25855;BME280;13680;49.936;11.344;2022-08-16T12:32:48;96195.13;;;31.65;30.58
25855;BME280;13680;49.936;11.344;2022-08-16T12:35:16;96199.50;;;31.76;30.46
25855;BME280;13680;49.936;11.344;2022-08-16T12:37:43;96211.06;;;31.30;30.40
25855;BME280;13680;49.936;11.344;2022-08-16T12:40:12;96199.63;;;30.93;30.70
25855;BME280;13680;49.936;11.344;2022-08-16T12:42:38;96206.78;;;30.42;31.54
25855;BME280;13680;49.936;11.344;2022-08-16T12:45:07;96201.56;;;30.70;31.34
25855;BME280;13680;49.936;11.344;2022-08-16T12:47:32;96203.03;;;30.10;32.54
25855;BME280;13680;49.936;11.344;2022-08-16T12:50:17;96215.72;;;29.69;33.11
25855;BME280;13680;49.936;11.344;2022-08-16T12:52:42;96199.16;;;29.52;34.00